Time;durP1;ratioP1;P1;durP2;ratioP2;P2;SDS_P1;SDS_P2;PMS_P1;PMS_P2;Temp;Humidity;BMP_temperature;BMP_pressure;BME280_temperature;BME280_humidity;BME280_pressure;Samples;Min_cycle;Max_cycle;Signal;HPM_P1;HPM_P2
2021/04/07 00:00:43;;;;;;;4.12;1.98;;;;;;;9.82;56.54;98908.09;1784058;79;20904;-55
2021/04/07 00:03:12;;;;;;;4.08;2.22;;;;;;;9.83;56.44;98907.01;1783942;80;21447;-55
2021/04/07 00:05:44;;;;;;;2.87;2.05;;;;;;;9.86;56.47;98902.87;1783778;80;21184;-55
2021/04/07 00:08:16;;;;;;;5.00;2.90;;;;;;;9.86;56.46;98896.09;1783941;80;21034;-55
2021/04/07 00:10:46;;;;;;;4.47;1.75;;;;;;;9.81;56.63;98886.66;1783808;80;21014;-55
2021/04/07 00:13:14;;;;;;;6.03;2.37;;;;;;;9.77;56.74;98893.78;1783943;80;20962;-55
2021/04/07 00:15:42;;;;;;;9.08;2.40;;;;;;;9.75;56.85;98888.65;1783952;80;21209;-54
2021/04/07 00:18:11;;;;;;;11.48;2.27;;;;;;;9.76;56.92;98887.54;1783860;79;21449;-54
2021/04/07 00:20:40;;;;;;;5.97;2.92;;;;;;;9.79;57.01;98879.37;1783966;80;20943;-54
2021/04/07 00:23:08;;;;;;;8.70;2.52;;;;;;;9.77;56.97;98882.36;1783877;80;20919;-54
2021/04/07 00:25:36;;;;;;;15.45;3.77;;;;;;;9.78;56.95;98877.20;1783904;80;21236;-54
2021/04/07 00:28:06;;;;;;;11.83;3.80;;;;;;;9.79;57.04;98886.16;1776413;79;22385;-52
2021/04/07 00:30:36;;;;;;;10.58;3.98;;;;;;;9.75;57.11;98882.41;1766604;81;20995;-51
2021/04/07 00:33:04;;;;;;;9.98;4.58;;;;;;;9.72;57.21;98879.72;1770683;79;20992;-51
2021/04/07 00:35:33;;;;;;;9.63;3.62;;;;;;;9.73;57.25;98880.00;1798219;79;21594;-52
2021/04/07 00:38:01;;;;;;;8.18;2.77;;;;;;;9.75;57.29;98881.06;1798133;79;21615;-52
2021/04/07 00:40:28;;;;;;;7.42;3.15;;;;;;;9.76;57.27;98878.59;1798165;79;21401;-52
2021/04/07 00:43:00;;;;;;;6.00;3.30;;;;;;;9.75;57.36;98875.07;1798110;79;20917;-51
2021/04/07 00:45:28;;;;;;;5.60;3.37;;;;;;;9.76;57.49;98875.32;1798183;79;21069;-51
2021/04/07 00:47:57;;;;;;;5.70;3.60;;;;;;;9.71;57.76;98874.59;1798143;79;20920;-53
2021/04/07 00:50:27;;;;;;;4.85;3.50;;;;;;;9.67;57.92;98877.64;1798115;78;21142;-52
2021/04/07 00:52:55;;;;;;;6.05;3.83;;;;;;;9.60;58.24;98871.23;1798186;79;21352;-51
2021/04/07 00:55:29;;;;;;;6.35;4.42;;;;;;;9.55;58.76;98871.30;1798106;78;21582;-52
2021/04/07 00:57:56;;;;;;;5.75;3.72;;;;;;;9.50;58.94;98864.59;1798133;79;20877;-52
2021/04/07 01:00:27;;;;;;;6.62;3.47;;;;;;;9.48;59.14;98868.97;1798066;79;20949;-51
2021/04/07 01:02:58;;;;;;;6.20;4.70;;;;;;;9.49;59.35;98869.22;1798131;79;21126;-53
2021/04/07 01:05:27;;;;;;;8.15;4.47;;;;;;;9.53;59.49;98878.39;1798172;79;21362;-52
2021/04/07 01:07:59;;;;;;;8.03;4.90;;;;;;;9.54;59.57;98876.48;1798056;79;20972;-53
2021/04/07 01:10:27;;;;;;;8.28;5.58;;;;;;;9.51;59.64;98872.44;1798126;79;21048;-54
2021/04/07 01:12:56;;;;;;;9.33;6.30;;;;;;;9.57;59.59;98874.52;1798192;79;21047;-55
2021/04/07 01:15:24;;;;;;;10.98;7.33;;;;;;;9.61;59.72;98875.00;1798316;79;21522;-53
2021/04/07 01:17:56;;;;;;;12.40;10.08;;;;;;;9.58;59.78;98874.80;1798247;79;20929;-54
2021/04/07 01:20:25;;;;;;;17.95;11.83;;;;;;;9.54;60.05;98869.70;1798286;78;20992;-55
2021/04/07 01:23:01;;;;;;;18.55;12.03;;;;;;;9.48;60.42;98868.97;1798449;78;21533;-54
2021/04/07 01:25:29;;;;;;;19.32;13.15;;;;;;;9.45;60.59;98868.19;1798295;79;21035;-54
2021/04/07 01:27:58;;;;;;;21.35;14.68;;;;;;;9.46;60.77;98867.63;1798066;79;21107;-55
2021/04/07 01:30:26;;;;;;;19.30;14.15;;;;;;;9.47;60.79;98863.81;1745306;79;22135;-55
2021/04/07 01:32:53;;;;;;;22.05;15.60;;;;;;;9.53;60.90;98866.17;1798244;78;21112;-57
2021/04/07 01:35:23;;;;;;;24.30;15.78;;;;;;;9.58;60.85;98855.80;1798280;79;21015;-54
2021/04/07 01:37:51;;;;;;;19.80;14.98;;;;;;;9.65;60.82;98857.58;1798262;78;21153;-54
2021/04/07 01:40:20;;;;;;;19.12;12.20;;;;;;;9.68;60.79;98854.28;1798243;79;20913;-56
2021/04/07 01:42:49;;;;;;;16.17;11.28;;;;;;;9.68;60.93;98867.86;1798319;78;21195;-55
2021/04/07 01:45:17;;;;;;;14.47;10.18;;;;;;;9.63;61.16;98861.15;1798228;79;20920;-55
2021/04/07 01:47:47;;;;;;;13.05;7.85;;;;;;;9.60;61.44;98860.37;1798247;78;20913;-55
2021/04/07 01:50:14;;;;;;;8.10;5.35;;;;;;;9.54;61.78;98859.64;1798247;79;21574;-56
2021/04/07 01:52:42;;;;;;;7.17;4.53;;;;;;;9.51;61.99;98858.05;1798249;79;21104;-56
2021/04/07 01:55:12;;;;;;;5.47;3.80;;;;;;;9.47;62.16;98858.37;1798248;79;21582;-54
2021/04/07 01:57:40;;;;;;;3.37;3.05;;;;;;;9.47;62.21;98851.59;1798324;79;21459;-53
2021/04/07 02:00:13;;;;;;;3.98;3.58;;;;;;;9.46;62.42;98844.55;1798246;79;20929;-55
2021/04/07 02:02:42;;;;;;;4.67;3.67;;;;;;;9.48;62.52;98843.70;1798254;79;21047;-54
2021/04/07 02:05:12;;;;;;;5.92;3.87;;;;;;;9.49;62.62;98844.78;1798383;79;21447;-54
2021/04/07 02:07:40;;;;;;;4.17;3.47;;;;;;;9.50;62.63;98832.81;1798321;79;22138;-54
2021/04/07 02:10:11;;;;;;;4.60;3.42;;;;;;;9.52;62.69;98834.67;1798231;79;21498;-55
2021/04/07 02:12:39;;;;;;;4.87;3.77;;;;;;;9.56;62.69;98830.83;1798271;79;20920;-54
2021/04/07 02:15:12;;;;;;;4.40;3.52;;;;;;;9.55;62.69;98823.23;1798313;78;21466;-55
2021/04/07 02:17:40;;;;;;;6.60;4.03;;;;;;;9.55;62.73;98812.37;1798313;79;20933;-53
2021/04/07 02:20:10;;;;;;;5.22;3.55;;;;;;;9.59;62.71;98807.17;1798185;79;22378;-53
2021/04/07 02:22:37;;;;;;;8.75;3.95;;;;;;;9.63;62.69;98802.77;1798164;79;20947;-52
2021/04/07 02:25:08;;;;;;;5.28;3.87;;;;;;;9.65;62.67;98800.55;1798236;79;20936;-54
2021/04/07 02:27:36;;;;;;;5.12;4.20;;;;;;;9.69;62.62;98795.34;1798176;79;20921;-53
2021/04/07 02:30:08;;;;;;;4.00;3.55;;;;;;;9.73;62.73;98797.17;1798279;79;21522;-54
2021/04/07 02:32:36;;;;;;;8.13;4.62;;;;;;;9.78;62.73;98786.74;1798250;79;21194;-54
2021/04/07 02:35:05;;;;;;;6.45;4.03;;;;;;;9.78;62.70;98781.31;1798132;79;21150;-55
2021/04/07 02:37:33;;;;;;;5.33;4.83;;;;;;;9.79;62.63;98775.60;1798243;79;21007;-54
2021/04/07 02:40:02;;;;;;;7.42;5.20;;;;;;;9.78;62.64;98772.64;1798200;79;21258;-54
2021/04/07 02:42:30;;;;;;;7.40;5.90;;;;;;;9.81;62.61;98777.45;1798261;79;21036;-51
2021/04/07 02:44:58;;;;;;;8.13;6.22;;;;;;;9.85;62.58;98773.60;1798182;79;21200;-57
2021/04/07 02:47:26;;;;;;;6.50;4.72;;;;;;;9.83;62.63;98775.80;1798125;79;21059;-55
2021/04/07 02:49:54;;;;;;;6.10;4.85;;;;;;;9.80;62.60;98777.77;1798213;79;20929;-55
2021/04/07 02:52:22;;;;;;;5.92;5.30;;;;;;;9.70;62.11;98777.38;1798267;79;20976;-54
2021/04/07 02:54:50;;;;;;;6.42;5.45;;;;;;;9.60;61.92;98772.13;1798226;79;20994;-56
2021/04/07 02:57:18;;;;;;;6.75;5.12;;;;;;;9.52;61.91;98783.09;1798176;78;21194;-54
2021/04/07 02:59:48;;;;;;;5.87;4.80;;;;;;;9.48;61.92;98786.69;1798239;79;21555;-54
2021/04/07 03:02:17;;;;;;;6.15;4.92;;;;;;;9.45;61.82;98794.08;1770557;79;21051;-53
2021/04/07 03:04:46;;;;;;;6.37;5.78;;;;;;;9.44;61.80;98803.34;1798198;79;20929;-53
2021/04/07 03:07:14;;;;;;;6.00;5.15;;;;;;;9.42;61.73;98816.38;1798191;79;21098;-53
2021/04/07 03:09:41;;;;;;;5.62;4.80;;;;;;;9.34;61.74;98824.09;1798153;79;21390;-53
2021/04/07 03:12:12;;;;;;;7.33;6.35;;;;;;;9.28;61.64;98829.90;1798126;79;20964;-53
2021/04/07 03:14:41;;;;;;;7.00;6.30;;;;;;;9.17;61.84;98834.63;1798301;79;20929;-55
2021/04/07 03:17:11;;;;;;;7.22;5.92;;;;;;;9.14;62.05;98842.58;1798196;78;20889;-55
2021/04/07 03:19:41;;;;;;;6.92;6.25;;;;;;;9.12;61.99;98855.61;1798267;79;20928;-55
2021/04/07 03:22:09;;;;;;;6.85;6.03;;;;;;;9.07;61.94;98865.45;1798185;79;21194;-56
2021/04/07 03:24:37;;;;;;;8.43;5.53;;;;;;;9.03;61.97;98857.63;1798189;79;21506;-54
2021/04/07 03:27:06;;;;;;;6.08;5.40;;;;;;;8.98;61.92;98873.17;1798233;79;21572;-56
2021/04/07 03:29:34;;;;;;;5.28;4.72;;;;;;;8.88;61.80;98884.14;1789210;79;21107;-55
2021/04/07 03:32:02;;;;;;;5.20;4.72;;;;;;;8.76;61.93;98892.11;1783940;80;21055;-55
2021/04/07 03:34:30;;;;;;;5.08;4.67;;;;;;;8.72;62.01;98901.94;1791673;80;21483;-55
2021/04/07 03:36:58;;;;;;;6.35;5.37;;;;;;;8.64;62.36;98913.95;1794993;80;21069;-55
2021/04/07 03:39:26;;;;;;;5.35;4.85;;;;;;;8.56;62.32;98914.02;1795103;79;21063;-56
2021/04/07 03:41:56;;;;;;;6.78;6.08;;;;;;;8.52;62.34;98911.64;1795079;79;21128;-51
2021/04/07 03:44:24;;;;;;;5.87;5.37;;;;;;;8.52;62.31;98909.73;1795106;79;21024;-52
2021/04/07 03:46:53;;;;;;;6.20;5.60;;;;;;;8.51;62.12;98909.45;1795046;80;21201;-53
2021/04/07 03:49:21;;;;;;;5.62;5.03;;;;;;;8.46;62.09;98915.47;1794999;80;21020;-53
2021/04/07 03:51:50;;;;;;;6.17;5.17;;;;;;;8.44;62.17;98916.31;1795088;80;20934;-54
2021/04/07 03:54:18;;;;;;;6.78;5.22;;;;;;;8.42;61.60;98915.80;1795185;80;21056;-54
2021/04/07 03:56:48;;;;;;;5.65;4.83;;;;;;;8.28;61.56;98919.14;1795118;80;20921;-54
2021/04/07 03:59:16;;;;;;;6.03;5.45;;;;;;;8.20;61.64;98910.25;1795151;79;22218;-54
2021/04/07 04:01:44;;;;;;;8.05;6.03;;;;;;;8.18;61.63;98907.58;1794990;80;20985;-53
2021/04/07 04:04:13;;;;;;;5.40;4.85;;;;;;;8.17;61.86;98907.33;1795032;79;20989;-53
2021/04/07 04:06:45;;;;;;;8.93;5.70;;;;;;;8.18;61.67;98911.09;1795025;80;21124;-54
2021/04/07 04:09:13;;;;;;;5.10;4.60;;;;;;;8.21;61.66;98908.34;1795215;80;21104;-54
2021/04/07 04:11:43;;;;;;;7.05;5.12;;;;;;;8.23;61.53;98911.05;1795108;80;21360;-55
2021/04/07 04:14:12;;;;;;;6.85;5.67;;;;;;;8.26;61.33;98921.84;1795018;79;21044;-54
2021/04/07 04:16:42;;;;;;;5.87;5.30;;;;;;;8.25;61.37;98916.98;1795006;79;21488;-54
2021/04/07 04:19:10;;;;;;;7.53;5.85;;;;;;;8.23;61.41;98928.66;1795035;80;20929;-56
2021/04/07 04:21:39;;;;;;;6.12;5.47;;;;;;;8.22;61.34;98923.53;1795311;80;21440;-55
2021/04/07 04:24:08;;;;;;;9.85;6.42;;;;;;;8.19;61.43;98931.67;1795093;80;23471;-54
2021/04/07 04:26:38;;;;;;;6.40;5.78;;;;;;;8.20;61.33;98926.51;1795043;80;21080;-57
2021/04/07 04:29:06;;;;;;;6.25;5.65;;;;;;;8.17;61.39;98926.29;1794921;78;21480;-55
2021/04/07 04:31:34;;;;;;;6.08;5.47;;;;;;;8.16;61.29;98925.48;1791785;79;20977;-52
2021/04/07 04:34:03;;;;;;;6.28;4.80;;;;;;;8.14;61.28;98930.36;1786757;79;21581;-53
2021/04/07 04:36:31;;;;;;;6.90;4.95;;;;;;;8.12;61.27;98930.39;1783945;79;21184;-56
2021/04/07 04:39:00;;;;;;;4.85;4.35;;;;;;;8.12;61.17;98931.75;1783918;80;20975;-53
2021/04/07 04:41:28;;;;;;;4.80;4.35;;;;;;;8.13;61.09;98926.59;1783879;80;20936;-53
2021/04/07 04:43:56;;;;;;;4.20;3.80;;;;;;;8.08;61.14;98927.98;1783856;79;21081;-55
2021/04/07 04:46:25;;;;;;;4.40;3.65;;;;;;;8.03;61.34;98939.11;1783863;80;21107;-53
2021/04/07 04:48:54;;;;;;;4.05;3.62;;;;;;;7.98;61.42;98939.70;1784004;79;21419;-55
2021/04/07 04:51:22;;;;;;;3.17;2.83;;;;;;;7.94;61.52;98936.73;1783952;80;21646;-56
2021/04/07 04:53:49;;;;;;;4.22;3.47;;;;;;;7.89;61.52;98930.55;1784116;80;20931;-53
2021/04/07 04:56:17;;;;;;;3.75;3.25;;;;;;;7.84;61.70;98935.45;1783999;80;20947;-57
2021/04/07 04:58:45;;;;;;;4.75;2.98;;;;;;;7.83;61.82;98930.33;1784078;79;21131;-57
2021/04/07 05:01:13;;;;;;;4.05;3.33;;;;;;;7.85;62.10;98937.61;1784020;80;21437;-58
2021/04/07 05:03:41;;;;;;;3.55;3.22;;;;;;;7.82;62.25;98938.19;1783944;80;21149;-54
2021/04/07 05:06:09;;;;;;;2.62;2.30;;;;;;;7.78;62.38;98941.45;1783643;80;20992;-55
2021/04/07 05:08:38;;;;;;;3.77;2.10;;;;;;;7.78;62.44;98943.35;1783964;79;21140;-52
2021/04/07 05:11:07;;;;;;;2.60;2.40;;;;;;;7.80;62.63;98950.09;1784029;80;21070;-53
2021/04/07 05:13:36;;;;;;;2.62;1.85;;;;;;;7.79;62.50;98956.60;1783966;80;21370;-55
2021/04/07 05:16:05;;;;;;;2.20;2.00;;;;;;;7.74;62.56;98963.40;1783764;79;21105;-57
2021/04/07 05:18:33;;;;;;;2.20;2.00;;;;;;;7.74;62.84;98958.53;1792286;79;21021;-55
2021/04/07 05:21:01;;;;;;;2.00;1.90;;;;;;;7.73;63.01;98965.05;1794049;80;21223;-54
2021/04/07 05:23:29;;;;;;;1.75;1.65;;;;;;;7.70;63.12;98966.94;1794910;80;20950;-53
2021/04/07 05:25:58;;;;;;;1.40;0.80;;;;;;;7.70;63.14;98968.30;1794971;79;21280;-55
2021/04/07 05:28:26;;;;;;;1.32;0.95;;;;;;;7.68;63.20;98967.23;1794864;79;21073;-53
2021/04/07 05:31:03;;;;;;;0.72;0.72;;;;;;;7.65;63.07;98967.78;1794977;78;21111;-55
2021/04/07 05:33:37;;;;;;;0.90;0.72;;;;;;;7.60;62.95;98975.13;1793563;80;21328;-54
2021/04/07 05:36:07;;;;;;;0.70;0.50;;;;;;;7.56;63.06;98974.08;1789790;79;21033;-54
2021/04/07 05:38:36;;;;;;;0.30;0.30;;;;;;;7.52;63.00;98987.36;1795197;79;21332;-54
2021/04/07 05:41:05;;;;;;;0.42;0.42;;;;;;;7.41;63.21;98986.59;1795121;80;21176;-56
2021/04/07 05:43:39;;;;;;;0.62;0.30;;;;;;;7.34;63.37;98985.26;1795262;80;20982;-55
2021/04/07 05:46:09;;;;;;;1.02;0.62;;;;;;;7.24;63.45;98987.45;1795097;80;20924;-53
2021/04/07 05:48:37;;;;;;;0.40;0.40;;;;;;;7.18;63.55;98993.97;1795197;80;21495;-54
2021/04/07 05:51:06;;;;;;;0.53;0.45;;;;;;;7.12;63.85;98990.48;1795146;79;21204;-55
2021/04/07 05:53:34;;;;;;;0.70;0.50;;;;;;;7.09;64.08;98995.62;1794599;79;21049;-54
2021/04/07 05:56:05;;;;;;;0.70;0.65;;;;;;;7.09;64.40;98999.67;1791475;80;21524;-54
2021/04/07 05:58:33;;;;;;;0.73;0.40;;;;;;;7.02;64.22;98999.43;1794413;79;21559;-57
2021/04/07 06:01:01;;;;;;;1.07;0.47;;;;;;;6.98;64.74;99005.11;1784802;80;21137;-55
2021/04/07 06:03:29;;;;;;;0.82;0.20;;;;;;;6.99;64.69;99000.51;1783994;80;21359;-54
2021/04/07 06:05:57;;;;;;;0.82;0.13;;;;;;;7.00;64.49;98996.74;1783944;80;21485;-53
2021/04/07 06:08:24;;;;;;;0.55;0.25;;;;;;;7.01;64.28;98996.46;1783986;79;21015;-58
2021/04/07 06:10:53;;;;;;;0.25;0.20;;;;;;;7.10;65.86;99008.89;1783845;79;21077;-59
2021/04/07 06:13:22;;;;;;;0.35;0.20;;;;;;;7.15;65.00;98999.41;1783741;80;21196;-59
2021/04/07 06:15:50;;;;;;;1.55;0.25;;;;;;;7.11;64.50;99006.99;1784149;79;22211;-57
2021/04/07 06:18:20;;;;;;;0.78;0.20;;;;;;;7.04;64.38;99005.91;1783884;79;21090;-59
2021/04/07 06:20:50;;;;;;;0.30;0.30;;;;;;;6.98;64.41;99008.36;1783901;79;20959;-57
2021/04/07 06:23:19;;;;;;;0.88;0.33;;;;;;;6.90;64.64;99006.23;1787458;79;21215;-60
2021/04/07 06:25:47;;;;;;;1.60;0.60;;;;;;;6.85;64.78;99008.40;1787504;79;21483;-65
2021/04/07 06:28:16;;;;;;;0.70;0.42;;;;;;;6.87;65.03;99013.52;1787887;79;21591;-60
2021/04/07 06:30:46;;;;;;;11.88;4.45;;;;;;;6.82;64.87;99014.34;1791146;79;21100;-59
2021/04/07 06:33:19;;;;;;;2.30;0.50;;;;;;;6.74;65.25;99010.31;1793909;78;21556;-60
2021/04/07 06:36:03;;;;;;;1.82;0.57;;;;;;;6.74;65.09;99008.95;1791813;78;21171;-58
2021/04/07 06:38:36;;;;;;;2.22;0.60;;;;;;;6.69;64.96;99011.67;1788661;79;21175;-57
2021/04/07 06:41:06;;;;;;;0.62;0.20;;;;;;;6.61;65.14;99004.64;1791818;79;21559;-57
2021/04/07 06:43:35;;;;;;;2.52;0.75;;;;;;;6.61;65.18;99004.64;1792775;79;21151;-57
2021/04/07 06:46:05;;;;;;;2.35;0.47;;;;;;;6.60;65.27;99002.48;1792726;78;21131;-63
2021/04/07 06:48:33;;;;;;;0.93;0.40;;;;;;;6.56;65.46;99000.05;1790772;79;21136;-59
2021/04/07 06:51:02;;;;;;;0.40;0.20;;;;;;;6.58;65.63;99001.92;1790615;79;21223;-59
2021/04/07 06:53:30;;;;;;;0.93;0.33;;;;;;;6.58;65.67;99001.12;1789776;80;21358;-60
2021/04/07 06:56:00;;;;;;;1.35;0.40;;;;;;;6.58;65.36;99004.63;1788776;79;20977;-61
2021/04/07 06:58:29;;;;;;;1.60;0.30;;;;;;;6.55;65.26;99011.14;1791748;79;21120;-60
2021/04/07 07:00:57;;;;;;;1.32;0.23;;;;;;;6.50;65.26;99006.54;1790335;79;21080;-62
2021/04/07 07:03:25;;;;;;;1.25;0.42;;;;;;;6.49;65.46;99015.19;1795747;78;21091;-60
2021/04/07 07:05:54;;;;;;;0.55;0.30;;;;;;;6.44;65.37;99021.14;1760212;80;21348;-60
2021/04/07 07:08:24;;;;;;;3.35;1.05;;;;;;;6.44;65.37;99021.14;1787899;79;21167;-57
2021/04/07 07:10:53;;;;;;;1.57;0.37;;;;;;;6.42;65.36;99026.79;1755918;78;21148;-56
2021/04/07 07:13:25;;;;;;;0.47;0.40;;;;;;;6.36;65.30;99035.17;1789636;78;21135;-62
2021/04/07 07:15:53;;;;;;;0.75;0.30;;;;;;;6.36;65.30;99035.17;1789970;79;21120;-62
2021/04/07 07:18:26;;;;;;;8.73;3.83;;;;;;;6.31;65.11;99027.88;1796164;79;21592;-61
2021/04/07 07:20:55;;;;;;;1.50;0.68;;;;;;;6.22;65.56;99030.28;1791438;79;21120;-59
2021/04/07 07:23:28;;;;;;;1.00;0.55;;;;;;;6.18;65.42;99027.88;1788638;79;21179;-60
2021/04/07 07:26:04;;;;;;;4.53;1.35;;;;;;;6.19;65.89;99027.33;1790606;79;21196;-57
2021/04/07 07:28:51;;;;;;;1.05;0.90;;;;;;;6.26;65.98;99028.41;1798807;79;21257;-57
2021/04/07 07:31:24;;;;;;;1.47;0.50;;;;;;;6.30;65.99;99026.80;1793178;79;21362;-57
2021/04/07 07:33:55;;;;;;;0.75;0.60;;;;;;;6.28;65.80;99025.70;1800814;78;21130;-57
2021/04/07 07:36:24;;;;;;;0.93;0.88;;;;;;;6.28;65.88;99025.70;1792449;80;21025;-58
2021/04/07 07:38:57;;;;;;;1.60;0.90;;;;;;;6.35;66.23;99038.95;1793126;78;21021;-60
2021/04/07 07:41:37;;;;;;;2.42;1.20;;;;;;;6.39;65.95;99040.86;1800032;78;21088;-60
2021/04/07 07:44:06;;;;;;;1.42;1.40;;;;;;;6.41;66.15;99033.82;1803325;78;21211;-62
2021/04/07 07:46:35;;;;;;;1.02;1.02;;;;;;;6.47;66.35;99032.19;1797287;78;21131;-60
2021/04/07 07:49:16;;;;;;;1.25;1.10;;;;;;;6.51;66.21;99029.77;1800968;78;21594;-60
2021/04/07 07:51:49;;;;;;;1.02;0.93;;;;;;;6.52;66.07;99021.93;1792541;78;21005;-62
2021/04/07 07:54:20;;;;;;;1.27;1.15;;;;;;;6.52;65.82;99030.58;1798129;78;21121;-59
2021/04/07 07:56:51;;;;;;;1.50;1.32;;;;;;;6.50;65.77;99029.51;1795338;78;21274;-59
2021/04/07 07:59:33;;;;;;;1.50;1.40;;;;;;;6.48;65.82;99017.59;1796656;78;21502;-62
2021/04/07 08:02:01;;;;;;;1.37;1.27;;;;;;;6.48;65.93;99019.49;1801200;78;21483;-59
2021/04/07 08:04:31;;;;;;;2.35;1.98;;;;;;;6.54;66.23;99017.59;1797409;78;21563;-60
2021/04/07 08:06:59;;;;;;;2.17;1.98;;;;;;;6.66;66.15;99022.20;1791945;79;21187;-63
2021/04/07 08:09:29;;;;;;;2.02;1.90;;;;;;;6.75;66.14;99016.52;1803717;78;22312;-60
2021/04/07 08:11:58;;;;;;;2.70;2.50;;;;;;;6.82;66.02;99017.05;1805580;78;21092;-60
2021/04/07 08:14:27;;;;;;;2.33;2.22;;;;;;;6.88;65.80;99012.44;1796906;78;20937;-58
2021/04/07 08:16:56;;;;;;;3.02;2.83;;;;;;;6.94;65.73;99009.44;1792409;80;21756;-57
2021/04/07 08:19:24;;;;;;;4.28;2.77;;;;;;;7.01;65.68;99003.22;1792592;80;20955;-57
2021/04/07 08:21:53;;;;;;;3.20;3.00;;;;;;;7.05;65.27;99009.45;1796354;78;21230;-57
2021/04/07 08:24:25;;;;;;;3.33;3.02;;;;;;;7.07;65.51;99011.32;1797860;78;21183;-57
2021/04/07 08:26:53;;;;;;;3.12;2.92;;;;;;;7.11;65.61;99025.92;1788073;79;21158;-61
2021/04/07 08:29:22;;;;;;;3.00;2.80;;;;;;;7.15;65.51;99021.05;1795310;79;21219;-58
2021/04/07 08:31:51;;;;;;;3.42;3.22;;;;;;;7.16;65.03;99028.07;1767935;80;21063;-62
2021/04/07 08:34:22;;;;;;;3.58;3.27;;;;;;;7.09;65.10;99028.88;1790937;79;22278;-56
2021/04/07 08:36:50;;;;;;;3.47;3.27;;;;;;;7.04;65.35;99037.00;1769356;78;21602;-58
2021/04/07 08:39:18;;;;;;;3.75;3.55;;;;;;;7.00;65.48;99029.20;1767244;78;21120;-59
2021/04/07 08:43:31;;;;;;;3.77;3.47;;;;;;;7.10;66.02;99026.47;1790471;78;25009;-61
2021/04/07 08:46:18;;;;;;;2.80;2.60;;;;;;;7.11;65.88;99027.27;1746934;80;20929;-68
2021/04/07 08:48:47;;;;;;;2.50;2.30;;;;;;;7.15;65.49;99027.00;1769820;80;21390;-62
2021/04/07 08:51:19;;;;;;;2.70;2.50;;;;;;;7.23;65.38;99039.40;1762623;80;21009;-60
2021/04/07 08:53:52;;;;;;;2.77;2.58;;;;;;;7.30;65.32;99035.07;1769613;80;20961;-64
2021/04/07 08:56:48;;;;;;;2.70;2.50;;;;;;;7.36;64.97;99035.31;1750348;80;21028;-64
2021/04/07 08:59:28;;;;;;;2.75;2.55;;;;;;;7.41;64.75;99039.91;1756723;80;21076;-58
2021/04/07 09:02:08;;;;;;;3.70;2.75;;;;;;;7.34;64.44;99048.84;1762456;80;21338;-59
2021/04/07 09:04:36;;;;;;;2.65;2.45;;;;;;;7.21;64.49;99046.98;1767216;80;20977;-62
2021/04/07 09:07:05;;;;;;;3.25;2.87;;;;;;;7.10;64.28;99060.82;1759070;80;20985;-71
2021/04/07 09:09:36;;;;;;;4.33;3.40;;;;;;;6.97;64.60;99064.88;1716185;80;21214;-67
2021/04/07 09:12:08;;;;;;;2.65;2.42;;;;;;;6.82;64.62;99058.95;1773645;80;20989;-67
2021/04/07 09:14:38;;;;;;;2.60;2.40;;;;;;;6.78;65.24;99054.35;1757128;81;21275;-66
2021/04/07 09:17:06;;;;;;;3.40;3.12;;;;;;;6.79;65.40;99051.91;1761325;80;21040;-64
2021/04/07 09:19:37;;;;;;;3.17;2.87;;;;;;;6.78;65.45;99038.94;1729740;81;21080;-62
2021/04/07 09:22:08;;;;;;;3.20;2.90;;;;;;;6.80;65.62;99034.63;1697338;83;21164;-60
2021/04/07 09:24:41;;;;;;;3.27;3.00;;;;;;;6.82;65.50;99037.86;1713217;82;21039;-64
2021/04/07 09:27:25;;;;;;;3.42;3.12;;;;;;;6.79;65.47;99032.98;1731108;82;21543;-63
2021/04/07 09:30:05;;;;;;;3.40;3.10;;;;;;;6.73;65.72;99037.05;1723699;82;21506;-63
2021/04/07 09:32:33;;;;;;;3.00;2.75;;;;;;;6.70;66.10;99036.26;1702568;83;21048;-66
2021/04/07 09:35:03;;;;;;;3.10;2.50;;;;;;;6.71;66.17;99027.61;1699420;83;21092;-64
2021/04/07 09:37:39;;;;;;;2.65;2.45;;;;;;;6.73;66.46;99019.48;1723104;81;21504;-62
2021/04/07 09:40:19;;;;;;;2.75;2.02;;;;;;;6.73;66.33;99018.13;1728328;81;21340;-63
2021/04/07 09:42:49;;;;;;;1.70;1.60;;;;;;;6.71;66.34;99020.84;1719084;82;21075;-63
2021/04/07 09:45:26;;;;;;;5.45;1.92;;;;;;;6.69;66.03;99029.75;1716036;80;21491;-64
2021/04/07 09:47:56;;;;;;;1.67;1.57;;;;;;;6.68;66.20;99036.24;1737418;81;21582;-65
2021/04/07 09:50:32;;;;;;;1.90;1.80;;;;;;;6.68;66.11;99045.16;1762558;80;21588;-66
2021/04/07 09:53:00;;;;;;;2.10;1.82;;;;;;;6.68;66.01;99046.51;1673420;84;22395;-64
2021/04/07 09:55:30;;;;;;;1.95;1.85;;;;;;;6.69;65.93;99044.61;1753309;80;21010;-62
2021/04/07 09:58:02;;;;;;;1.85;1.75;;;;;;;6.70;66.17;99040.31;1729464;82;21116;-62
2021/04/07 10:00:33;;;;;;;2.15;1.47;;;;;;;6.76;66.02;99043.82;1704424;83;20939;-60
2021/04/07 10:03:02;;;;;;;2.05;1.82;;;;;;;6.78;66.04;99048.40;1718069;82;21065;-64
2021/04/07 10:05:32;;;;;;;1.82;1.72;;;;;;;6.79;66.35;99047.86;1676838;84;22296;-63
2021/04/07 10:08:17;;;;;;;2.17;1.95;;;;;;;6.77;65.48;99049.48;1753311;80;21519;-59
2021/04/07 10:10:46;;;;;;;2.45;2.25;;;;;;;6.69;65.71;99054.08;1752800;80;21152;-59
2021/04/07 10:13:15;;;;;;;2.45;2.25;;;;;;;6.61;66.04;99040.58;1712170;82;21045;-61
2021/04/07 10:15:44;;;;;;;2.55;2.35;;;;;;;6.58;66.08;99046.52;1756446;80;21202;-62
2021/04/07 10:18:13;;;;;;;2.25;2.05;;;;;;;6.55;66.20;99055.72;1717955;82;22402;-57
2021/04/07 10:20:41;;;;;;;2.10;1.62;;;;;;;6.49;66.39;99056.27;1752047;80;21145;-60
2021/04/07 10:23:12;;;;;;;1.80;1.70;;;;;;;6.48;66.55;99054.62;1747780;80;21775;-66
2021/04/07 10:25:40;;;;;;;2.00;1.87;;;;;;;6.47;66.48;99055.70;1755921;80;21084;-63
2021/04/07 10:28:19;;;;;;;1.95;1.85;;;;;;;6.45;66.73;99051.13;1741842;80;21683;-62
2021/04/07 10:30:48;;;;;;;2.37;1.57;;;;;;;6.46;66.55;99058.14;1723286;82;21674;-62
2021/04/07 10:33:26;;;;;;;2.80;2.15;;;;;;;6.48;66.77;99055.42;1755271;80;21155;-62
2021/04/07 10:35:59;;;;;;;1.90;1.80;;;;;;;6.50;66.97;99053.83;1754720;80;21143;-61
2021/04/07 10:38:34;;;;;;;2.40;2.20;;;;;;;6.57;67.05;99058.95;1760838;80;21120;-64
2021/04/07 10:41:04;;;;;;;1.62;1.52;;;;;;;6.59;66.67;99052.22;1754360;80;21044;-62
2021/04/07 10:43:39;;;;;;;1.42;1.35;;;;;;;6.60;66.54;99047.61;1754155;80;21488;-65
2021/04/07 10:46:08;;;;;;;2.02;1.65;;;;;;;6.63;66.78;99051.11;1747912;81;21007;-71
2021/04/07 10:48:38;;;;;;;1.47;1.37;;;;;;;6.65;67.11;99048.42;1746801;81;21139;-64
2021/04/07 10:51:08;;;;;;;1.80;1.70;;;;;;;6.73;67.11;99041.65;1746511;80;21199;-65
2021/04/07 10:53:42;;;;;;;1.50;1.40;;;;;;;6.76;66.63;99039.77;1746733;81;21222;-69
2021/04/07 10:56:22;;;;;;;1.75;1.65;;;;;;;6.83;66.67;99044.34;1747579;81;21374;-61
2021/04/07 10:59:00;;;;;;;1.70;1.47;;;;;;;6.92;66.54;99052.72;1683660;83;21271;-62
2021/04/07 11:01:34;;;;;;;2.85;1.30;;;;;;;6.93;66.04;99054.34;1698092;83;20978;-67
2021/04/07 11:04:20;;;;;;;2.22;2.12;;;;;;;6.87;65.38;99055.43;1695657;83;21017;-65
2021/04/07 11:06:57;;;;;;;1.72;1.57;;;;;;;6.79;65.78;99049.20;1701331;83;21108;-64
2021/04/07 11:09:32;;;;;;;1.72;1.40;;;;;;;6.76;65.73;99050.58;1675156;85;21402;-63
2021/04/07 11:11:59;;;;;;;2.12;1.92;;;;;;;6.81;65.75;99060.58;1657374;85;21548;-66
2021/04/07 11:14:27;;;;;;;1.60;1.50;;;;;;;6.78;65.93;99061.11;1715723;81;21213;-67
2021/04/07 11:16:59;;;;;;;1.45;1.30;;;;;;;6.81;66.36;99061.93;1753392;81;21144;-62
2021/04/07 11:19:38;;;;;;;1.70;1.60;;;;;;;6.87;66.12;99048.67;1761104;80;20914;-61
2021/04/07 11:22:06;;;;;;;1.12;1.12;;;;;;;6.93;66.17;99046.22;1708397;83;22145;-59
2021/04/07 11:24:37;;;;;;;2.25;1.40;;;;;;;6.99;66.32;99043.77;1706988;83;21602;-62
2021/04/07 11:27:10;;;;;;;1.82;1.22;;;;;;;7.02;66.29;99048.65;1747769;81;21611;-62
2021/04/07 11:29:41;;;;;;;1.82;1.72;;;;;;;7.05;66.40;99053.52;1718807;80;21659;-62
2021/04/07 11:32:11;;;;;;;1.30;1.15;;;;;;;7.02;65.72;99047.30;1745430;81;21163;-61
2021/04/07 11:37:42;;;;;;;1.63;1.50;;;;;;;6.92;65.75;99045.96;1760560;79;25682;-58
2021/04/07 11:40:09;;;;;;;2.22;1.87;;;;;;;6.85;65.36;99053.01;1727977;82;21085;-58
2021/04/07 11:42:57;;;;;;;1.57;1.47;;;;;;;6.77;65.50;99052.19;1730749;82;21389;-62
2021/04/07 11:45:17;;;;;;;2.67;1.72;;;;;;;6.71;65.62;99058.14;1729040;82;21072;-57
2021/04/07 11:47:45;;;;;;;1.82;1.32;;;;;;;6.69;65.40;99056.27;1729292;82;21076;-58
2021/04/07 11:50:13;;;;;;;1.52;1.17;;;;;;;6.67;65.32;99058.95;1732742;82;20973;-57
2021/04/07 11:52:41;;;;;;;1.35;1.20;;;;;;;6.62;65.12;99065.17;1735749;82;20994;-59
2021/04/07 11:55:11;;;;;;;1.50;1.30;;;;;;;6.54;65.39;99079.75;1738172;80;21280;-58
2021/04/07 11:57:39;;;;;;;1.85;0.98;;;;;;;6.45;65.54;99076.79;1705422;82;21057;-59
2021/04/07 12:00:10;;;;;;;1.50;1.25;;;;;;;6.39;65.68;99075.17;1734169;82;20926;-61